Time;durP1;ratioP1;P1;durP2;ratioP2;P2;SDS_P1;SDS_P2;PMS_P1;PMS_P2;Temp;Humidity;BMP_temperature;BMP_pressure;BME280_temperature;BME280_humidity;BME280_pressure;Samples;Min_cycle;Max_cycle;Signal;HPM_P1;HPM_P2
2022/04/13 00:00:27;;;;;;;43.78;20.80;;;;;;;1.96;71.14;101026.94;1386565;88;21264;-83
2022/04/13 00:02:55;;;;;;;40.12;20.45;;;;;;;1.93;71.27;101019.73;1373707;90;22352;-83
2022/04/13 00:05:22;;;;;;;37.75;19.45;;;;;;;1.92;71.02;101020.17;1386300;89;22255;-82
2022/04/13 00:07:50;;;;;;;39.40;19.87;;;;;;;1.90;72.05;101022.47;1386747;88;21309;-81
2022/04/13 00:10:17;;;;;;;36.73;20.32;;;;;;;1.88;71.77;101019.11;1387778;88;22380;-91
2022/04/13 00:12:44;;;;;;;40.70;20.60;;;;;;;1.91;70.30;101025.02;1389188;89;22233;-92
2022/04/13 00:15:11;;;;;;;35.88;19.60;;;;;;;1.91;71.00;101022.88;1389817;89;21346;-91
2022/04/13 00:17:39;;;;;;;47.95;23.70;;;;;;;1.91;70.95;101024.18;1389489;89;21354;-93
2022/04/13 00:20:07;;;;;;;36.50;19.80;;;;;;;1.88;71.11;101017.81;1389661;88;21398;-92
2022/04/13 00:22:34;;;;;;;38.02;19.65;;;;;;;1.89;70.82;101022.09;1390282;89;21317;-92
2022/04/13 00:25:01;;;;;;;36.42;18.92;;;;;;;1.90;70.02;101022.03;1389114;89;21279;-92
2022/04/13 00:27:29;;;;;;;32.33;17.62;;;;;;;1.92;69.94;101025.86;1389377;89;21324;-92
2022/04/13 00:29:56;;;;;;;42.10;20.45;;;;;;;1.95;69.85;101027.84;1369056;90;22235;-90
2022/04/13 00:32:23;;;;;;;38.40;17.70;;;;;;;1.93;70.31;101027.56;1357749;92;21256;-92
2022/04/13 00:34:50;;;;;;;38.38;18.37;;;;;;;1.86;70.54;101026.17;1387162;88;21279;-92
2022/04/13 00:37:22;;;;;;;34.25;18.55;;;;;;;1.85;69.94;101027.10;1387885;89;21228;-92
2022/04/13 00:39:49;;;;;;;34.48;18.92;;;;;;;1.83;71.13;101021.11;1387344;89;21205;-91
2022/04/13 00:42:17;;;;;;;42.17;18.87;;;;;;;1.78;71.14;101026.11;1392673;88;21338;-92
2022/04/13 00:44:44;;;;;;;31.48;17.40;;;;;;;1.73;71.06;101028.09;1385452;87;21360;-91
2022/04/13 00:47:12;;;;;;;32.55;16.50;;;;;;;1.69;70.83;101026.55;1389037;89;21368;-92
2022/04/13 00:49:40;;;;;;;28.60;16.00;;;;;;;1.66;71.44;101026.70;1375887;90;21316;-92
2022/04/13 00:52:10;;;;;;;40.17;19.55;;;;;;;1.63;71.44;101033.37;1391122;88;21420;-92
2022/04/13 00:54:39;;;;;;;35.00;19.32;;;;;;;1.58;72.11;101027.53;1400765;88;21415;-92
2022/04/13 00:57:09;;;;;;;39.20;19.73;;;;;;;1.53;71.53;101028.23;1397976;88;21411;-93
2022/04/13 00:59:38;;;;;;;32.73;16.97;;;;;;;1.52;71.45;101027.83;1398999;88;21360;-93
2022/04/13 01:02:08;;;;;;;38.40;18.65;;;;;;;1.45;71.14;101026.45;1398685;87;21368;-91
2022/04/13 01:04:36;;;;;;;37.08;18.55;;;;;;;1.37;71.36;101032.50;1385628;89;21418;-92
2022/04/13 01:07:09;;;;;;;37.17;18.27;;;;;;;1.31;71.75;101033.17;1398278;88;21316;-91
2022/04/13 01:09:37;;;;;;;37.50;17.92;;;;;;;1.24;71.83;101030.48;1398527;88;22949;-90
2022/04/13 01:12:06;;;;;;;37.35;18.60;;;;;;;1.22;71.77;101032.31;1397585;88;21368;-89
2022/04/13 01:14:34;;;;;;;34.58;17.30;;;;;;;1.18;72.14;101025.57;1397254;87;21291;-90
2022/04/13 01:17:01;;;;;;;35.92;17.48;;;;;;;1.15;71.90;101029.59;1397218;87;22121;-90
2022/04/13 01:19:32;;;;;;;31.55;18.27;;;;;;;1.13;71.63;101029.69;1398218;88;21322;-89
2022/04/13 01:22:03;;;;;;;38.28;17.57;;;;;;;1.15;71.39;101034.81;1397589;88;21360;-90
2022/04/13 01:24:29;;;;;;;29.92;15.05;;;;;;;1.17;71.42;101031.68;1393556;88;21436;-89
2022/04/13 01:26:56;;;;;;;33.25;17.87;;;;;;;1.20;71.30;101037.21;1396211;87;22225;-90
2022/04/13 01:29:23;;;;;;;31.75;17.12;;;;;;;1.25;70.53;101034.77;1396166;88;21175;-90
2022/04/13 01:31:53;;;;;;;35.73;17.05;;;;;;;1.29;71.07;101035.00;1397604;88;21360;-90
2022/04/13 01:34:20;;;;;;;32.95;16.12;;;;;;;1.36;70.27;101031.66;1399598;88;21242;-91
2022/04/13 01:36:47;;;;;;;40.05;19.92;;;;;;;1.44;70.36;101032.14;1410049;88;21401;-91
2022/04/13 01:39:14;;;;;;;47.60;24.27;;;;;;;1.48;70.35;101034.13;1398839;88;21375;-90
2022/04/13 01:41:41;;;;;;;46.95;25.77;;;;;;;1.49;70.22;101030.59;1398983;87;22306;-91
2022/04/13 01:44:08;;;;;;;36.80;20.57;;;;;;;1.49;70.21;101030.59;1398475;87;21420;-90
2022/04/13 01:46:36;;;;;;;34.35;18.87;;;;;;;1.47;69.71;101035.06;1398613;88;21345;-91
2022/04/13 01:49:03;;;;;;;38.10;17.60;;;;;;;1.49;69.38;101033.20;1398660;88;21220;-92
2022/04/13 01:51:31;;;;;;;29.25;17.42;;;;;;;1.52;69.14;101036.50;1398882;88;21345;-91
2022/04/13 01:53:58;;;;;;;31.17;17.23;;;;;;;1.54;69.18;101037.74;1404283;86;21351;-89
2022/04/13 01:56:28;;;;;;;27.25;15.93;;;;;;;1.56;70.00;101040.66;1405960;87;21315;-92
2022/04/13 01:58:55;;;;;;;44.83;21.77;;;;;;;1.50;70.13;101033.61;1407000;87;21322;-90
2022/04/13 02:01:22;;;;;;;31.87;18.15;;;;;;;1.47;69.41;101033.76;1405696;87;21322;-90
2022/04/13 02:03:51;;;;;;;27.85;17.20;;;;;;;1.47;69.80;101036.37;1405279;87;21315;-89
2022/04/13 02:06:19;;;;;;;22.90;13.83;;;;;;;1.46;69.55;101034.66;1402122;87;22239;-90
2022/04/13 02:08:46;;;;;;;22.85;13.62;;;;;;;1.43;69.38;101035.65;1405873;87;21278;-88
2022/04/13 02:11:13;;;;;;;33.88;15.93;;;;;;;1.42;69.80;101035.27;1405856;87;21271;-90
2022/04/13 02:13:40;;;;;;;27.37;14.13;;;;;;;1.40;69.54;101034.49;1406539;87;21374;-92
2022/04/13 02:16:08;;;;;;;25.88;13.75;;;;;;;1.35;70.22;101029.52;1404008;87;21262;-92
2022/04/13 02:18:35;;;;;;;26.02;13.58;;;;;;;1.33;70.09;101026.13;1386058;89;21420;-93
2022/04/13 02:21:02;;;;;;;22.25;13.05;;;;;;;1.33;70.35;101027.44;1394888;88;21382;-93
2022/04/13 02:23:29;;;;;;;28.25;14.25;;;;;;;1.35;70.17;101026.91;1384726;88;21249;-93
2022/04/13 02:25:57;;;;;;;30.20;15.70;;;;;;;1.35;69.83;101022.12;1399931;88;21293;-94
2022/04/13 02:28:24;;;;;;;27.70;15.38;;;;;;;1.38;70.10;101026.35;1386339;89;21265;-94
2022/04/13 02:30:51;;;;;;;28.50;13.70;;;;;;;1.34;69.43;101023.90;1387176;89;21323;-93
2022/04/13 02:33:18;;;;;;;24.82;13.13;;;;;;;1.34;68.93;101023.90;1386975;89;21330;-94
2022/04/13 02:35:45;;;;;;;23.98;12.55;;;;;;;1.35;68.55;101028.64;1386891;89;21323;-93
2022/04/13 02:38:12;;;;;;;23.15;12.00;;;;;;;1.40;68.47;101029.74;1400816;88;22300;-93
2022/04/13 02:40:39;;;;;;;25.40;12.47;;;;;;;1.50;68.38;101027.09;1391916;88;21309;-93
2022/04/13 02:43:06;;;;;;;22.60;12.55;;;;;;;1.56;68.12;101029.39;1385758;89;21301;-92
2022/04/13 02:45:34;;;;;;;28.38;12.37;;;;;;;1.49;68.88;101034.51;1385806;89;21353;-93
2022/04/13 02:48:02;;;;;;;22.40;13.18;;;;;;;1.41;68.17;101036.20;1399105;89;21227;-93
2022/04/13 02:50:29;;;;;;;24.92;13.80;;;;;;;1.39;68.29;101033.28;1399805;87;21294;-93
2022/04/13 02:52:56;;;;;;;23.18;13.55;;;;;;;1.34;68.36;101034.33;1399658;87;21271;-94
2022/04/13 02:55:23;;;;;;;22.75;13.32;;;;;;;1.31;68.61;101034.48;1399810;88;21323;-92
2022/04/13 02:57:51;;;;;;;22.77;12.55;;;;;;;1.23;69.56;101033.16;1405847;87;21264;-92
2022/04/13 03:00:19;;;;;;;24.72;12.25;;;;;;;1.13;69.36;101036.67;1366943;89;21501;-93
2022/04/13 03:02:46;;;;;;;19.37;11.75;;;;;;;1.03;70.09;101034.93;1406083;87;22329;-93
2022/04/13 03:05:13;;;;;;;23.27;11.75;;;;;;;0.98;70.12;101039.97;1406183;87;22269;-93
2022/04/13 03:07:40;;;;;;;20.00;11.08;;;;;;;0.92;70.41;101035.05;1406424;87;21352;-94
2022/04/13 03:10:08;;;;;;;22.52;10.72;;;;;;;0.88;70.56;101037.80;1405289;87;21321;-91
2022/04/13 03:12:36;;;;;;;20.72;11.35;;;;;;;0.82;71.30;101034.17;1406577;87;21367;-94
2022/04/13 03:15:08;;;;;;;23.18;11.00;;;;;;;0.81;70.53;101039.02;1408229;87;21263;-94
2022/04/13 03:17:35;;;;;;;18.75;11.03;;;;;;;0.81;70.95;101039.02;1406369;87;21445;-93
2022/04/13 03:20:02;;;;;;;20.12;10.60;;;;;;;0.81;70.74;101044.22;1404466;87;21316;-93
2022/04/13 03:22:29;;;;;;;19.37;10.28;;;;;;;0.77;71.71;101043.95;1392523;88;22284;-92
2022/04/13 03:25:01;;;;;;;19.57;9.75;;;;;;;0.71;72.03;101044.23;1385863;89;22351;-93
2022/04/13 03:27:29;;;;;;;21.40;11.12;;;;;;;0.66;71.81;101050.11;1396575;87;21470;-92
2022/04/13 03:29:55;;;;;;;22.67;12.93;;;;;;;0.61;72.06;101047.73;1402953;87;21322;-93
2022/04/13 03:32:22;;;;;;;21.12;10.93;;;;;;;0.59;71.71;101051.31;1395875;89;21411;-92
2022/04/13 03:34:49;;;;;;;19.48;11.35;;;;;;;0.56;71.53;101047.55;1394731;87;21316;-93
2022/04/13 03:37:17;;;;;;;22.35;12.07;;;;;;;0.55;71.56;101050.61;1393729;89;21396;-92
2022/04/13 03:39:45;;;;;;;24.63;12.60;;;;;;;0.52;70.99;101047.27;1389541;89;21271;-93
2022/04/13 03:42:12;;;;;;;24.82;11.60;;;;;;;0.51;70.91;101051.64;1407159;87;21322;-93
2022/04/13 03:44:39;;;;;;;23.95;12.28;;;;;;;0.50;71.57;101050.42;1394324;87;21346;-93
2022/04/13 03:47:06;;;;;;;25.57;13.10;;;;;;;0.38;71.66;101053.95;1389980;89;21360;-90
2022/04/13 03:49:33;;;;;;;21.48;12.05;;;;;;;0.33;71.38;101064.18;1401996;87;21523;-89
2022/04/13 03:52:00;;;;;;;29.25;15.05;;;;;;;0.30;71.77;101056.04;1361581;89;21478;-88
2022/04/13 03:54:28;;;;;;;24.12;13.85;;;;;;;0.33;71.29;101060.27;1398895;88;22093;-88
2022/04/13 03:56:55;;;;;;;22.17;12.28;;;;;;;0.34;71.84;101053.68;1407530;87;21403;-88
2022/04/13 03:59:22;;;;;;;23.12;12.35;;;;;;;0.37;71.88;101056.15;1389145;87;21334;-88
2022/04/13 04:01:49;;;;;;;28.65;13.50;;;;;;;0.40;72.60;101061.25;1399983;89;21329;-88
2022/04/13 04:04:16;;;;;;;26.65;12.93;;;;;;;0.45;72.15;101056.66;1398406;87;22239;-88
2022/04/13 04:06:44;;;;;;;27.87;14.45;;;;;;;0.47;72.43;101065.73;1391807;88;21279;-89
2022/04/13 04:09:11;;;;;;;29.12;15.43;;;;;;;0.52;72.00;101064.20;1379750;89;22174;-89
2022/04/13 04:11:38;;;;;;;24.32;13.20;;;;;;;0.59;72.00;101071.69;1393257;89;22298;-89
2022/04/13 04:14:05;;;;;;;24.92;14.53;;;;;;;0.64;71.82;101073.64;1380819;89;22180;-89
2022/04/13 04:16:32;;;;;;;26.77;13.85;;;;;;;0.70;71.66;101072.52;1361091;88;21301;-91
2022/04/13 04:18:59;;;;;;;21.20;12.20;;;;;;;0.73;71.67;101072.38;1358938;90;21331;-90
2022/04/13 04:21:26;;;;;;;26.07;13.72;;;;;;;0.78;71.68;101071.72;1358344;90;21466;-91
2022/04/13 04:23:53;;;;;;;24.00;13.03;;;;;;;0.87;71.03;101075.21;1361692;91;21456;-91
2022/04/13 04:26:21;;;;;;;26.57;14.23;;;;;;;1.01;70.94;101081.10;1358625;92;21546;-92
2022/04/13 04:28:48;;;;;;;24.00;13.48;;;;;;;1.12;70.54;101088.41;1356913;90;21302;-91
2022/04/13 04:31:49;;;;;;;23.90;12.15;;;;;;;1.26;70.21;101087.77;1364797;90;21399;-91
2022/04/13 04:33:50;;;;;;;21.80;12.88;;;;;;;1.37;70.09;101092.48;1376129;89;22255;-91
2022/04/13 04:36:17;;;;;;;21.52;11.95;;;;;;;1.47;69.70;101093.76;1379904;89;21287;-91
2022/04/13 04:38:44;;;;;;;22.70;12.10;;;;;;;1.49;69.29;101099.73;1378559;89;21382;-85
2022/04/13 04:41:11;;;;;;;22.05;11.05;;;;;;;1.56;69.20;101094.62;1368933;89;21280;-85
2022/04/13 04:43:39;;;;;;;22.42;12.13;;;;;;;1.62;68.88;101102.61;1366520;91;21236;-85
2022/04/13 04:46:07;;;;;;;22.65;12.35;;;;;;;1.69;68.91;101102.22;1376156;89;21590;-87
2022/04/13 04:48:34;;;;;;;27.50;10.88;;;;;;;1.83;68.73;101104.63;1362326;91;21361;-86
2022/04/13 04:51:01;;;;;;;22.22;11.80;;;;;;;1.93;68.79;101108.03;1371300;88;21264;-84
2022/04/13 04:53:28;;;;;;;25.02;11.93;;;;;;;2.02;69.03;101101.50;1352057;90;22190;-83
2022/04/13 04:55:55;;;;;;;21.70;11.20;;;;;;;2.06;68.20;101110.02;1362012;89;21375;-83
2022/04/13 04:58:23;;;;;;;18.35;10.08;;;;;;;2.07;67.81;101111.23;1391538;89;21280;-85
2022/04/13 05:00:50;;;;;;;37.17;10.60;;;;;;;2.08;67.36;101114.25;1379871;89;22314;-85
2022/04/13 05:03:17;;;;;;;27.58;10.70;;;;;;;2.13;66.96;101118.79;1367626;88;21486;-85
2022/04/13 05:05:44;;;;;;;42.53;10.47;;;;;;;2.21;66.82;101119.23;1378756;89;21293;-86
2022/04/13 05:08:11;;;;;;;17.83;10.47;;;;;;;2.30;66.47;101115.77;1387123;89;21909;-86
2022/04/13 05:10:38;;;;;;;30.93;11.17;;;;;;;2.40;66.60;101119.62;1401513;87;21512;-86
2022/04/13 05:13:06;;;;;;;26.87;11.10;;;;;;;2.51;66.55;101117.30;1396935;87;21374;-85
2022/04/13 05:15:33;;;;;;;19.30;9.70;;;;;;;2.63;66.27;101117.12;1382340;88;21606;-87
2022/04/13 05:18:01;;;;;;;21.13;11.90;;;;;;;2.80;66.21;101118.86;1399836;88;21470;-86
2022/04/13 05:20:28;;;;;;;19.20;9.90;;;;;;;2.95;65.77;101118.04;1400508;87;21388;-85
2022/04/13 05:22:55;;;;;;;18.40;9.30;;;;;;;3.10;65.55;101126.36;1399056;87;22421;-86
2022/04/13 05:25:22;;;;;;;13.93;8.70;;;;;;;3.27;65.04;101129.84;1389894;87;21765;-87
2022/04/13 05:27:49;;;;;;;14.87;8.90;;;;;;;3.37;63.98;101129.73;1387059;88;21477;-86
2022/04/13 05:30:16;;;;;;;18.53;10.27;;;;;;;3.53;64.01;101125.80;1400311;87;21584;-86
2022/04/13 05:32:56;;;;;;;17.77;8.20;;;;;;;3.69;63.74;101136.27;1401039;88;21553;-85
2022/04/13 05:35:25;;;;;;;19.60;8.30;;;;;;;3.83;63.57;101140.27;1399156;87;21517;-86
2022/04/13 05:37:53;;;;;;;16.67;8.33;;;;;;;3.94;62.96;101144.43;1401255;88;21498;-87
2022/04/13 05:40:24;;;;;;;16.53;9.00;;;;;;;4.10;63.13;101148.78;1401186;87;21547;-87
2022/04/13 05:42:55;;;;;;;15.53;9.33;;;;;;;4.30;63.20;101153.70;1379366;88;21520;-86
2022/04/13 05:45:24;;;;;;;18.23;9.20;;;;;;;4.48;62.94;101156.55;1371436;90;21576;-88
2022/04/13 05:47:52;;;;;;;16.63;9.13;;;;;;;4.65;62.42;101156.86;1371398;90;21552;-86
2022/04/13 05:50:19;;;;;;;19.93;9.77;;;;;;;4.82;61.47;101165.03;1379453;88;21795;-86
2022/04/13 05:52:46;;;;;;;14.33;8.23;;;;;;;5.01;61.58;101162.62;1379778;88;21610;-86
2022/04/13 05:55:13;;;;;;;15.80;8.33;;;;;;;5.15;60.49;101169.14;1379417;89;21683;-86
2022/04/13 05:57:40;;;;;;;15.70;8.73;;;;;;;5.31;60.80;101167.73;1379516;88;23153;-86
2022/04/13 06:00:13;;;;;;;13.10;7.97;;;;;;;5.47;59.25;101145.29;1371447;90;21806;-87
2022/04/13 06:02:41;;;;;;;11.97;6.53;;;;;;;5.61;59.74;101168.89;1379341;89;22942;-85
2022/04/13 06:05:10;;;;;;;18.13;8.27;;;;;;;5.95;58.05;101180.73;1380120;89;22097;-85
2022/04/13 06:07:37;;;;;;;11.03;7.93;;;;;;;5.95;58.05;101180.73;1379169;89;22887;-84
2022/04/13 06:10:05;;;;;;;15.27;7.23;;;;;;;6.13;58.50;101185.73;1379552;88;22947;-86
2022/04/13 06:12:33;;;;;;;20.73;9.30;;;;;;;6.29;58.08;101180.69;1371400;90;22885;-84
2022/04/13 06:15:07;;;;;;;11.13;7.13;;;;;;;6.48;57.75;101187.38;1379607;89;21963;-84
2022/04/13 06:17:35;;;;;;;12.07;6.90;;;;;;;6.64;57.06;101186.69;1379368;88;23229;-85
2022/04/13 06:20:04;;;;;;;14.50;7.60;;;;;;;6.77;55.64;101186.72;1379524;88;21994;-86
2022/04/13 06:22:32;;;;;;;12.67;6.50;;;;;;;6.92;55.36;101188.77;1379360;89;21990;-87
2022/04/13 06:25:03;;;;;;;17.73;7.27;;;;;;;7.07;55.56;101182.44;1379604;89;21412;-84
2022/04/13 06:27:31;;;;;;;;;;;;;;;7.22;54.77;101189.73;1381999;89;21301;-87
2022/04/13 06:29:58;;;;;;;11.27;6.63;;;;;;;7.40;54.35;101183.67;1379794;88;20299;-87
2022/04/13 06:32:36;;;;;;;17.07;6.80;;;;;;;7.53;53.24;101184.47;1379649;89;21242;-88
2022/04/13 06:35:04;;;;;;;12.00;6.63;;;;;;;7.66;52.12;101193.19;1379790;88;21307;-87
2022/04/13 06:37:32;;;;;;;12.43;7.10;;;;;;;7.79;52.89;101197.08;1379739;89;22292;-87
2022/04/13 06:39:58;;;;;;;15.23;6.57;;;;;;;7.94;53.22;101197.80;1379410;89;22240;-87
2022/04/13 06:42:26;;;;;;;12.40;6.70;;;;;;;8.12;53.43;101197.75;1379916;88;22203;-87
2022/04/13 06:44:53;;;;;;;14.87;7.97;;;;;;;8.28;52.67;101193.97;1379674;89;21346;-87
2022/04/13 06:47:21;;;;;;;12.77;6.70;;;;;;;8.29;49.53;101193.03;1379478;89;22188;-88
2022/04/13 06:49:48;;;;;;;11.03;6.67;;;;;;;8.46;51.71;101196.60;1371522;90;22188;-86
2022/04/13 06:52:16;;;;;;;64.60;8.83;;;;;;;8.43;48.55;101192.87;1379997;89;22255;-88
2022/04/13 06:54:43;;;;;;;10.87;6.30;;;;;;;8.56;49.74;101192.78;1379454;89;22049;-88
2022/04/13 06:57:10;;;;;;;12.57;5.93;;;;;;;8.63;49.35;101194.47;1362894;89;22829;-89
2022/04/13 06:59:37;;;;;;;10.13;6.67;;;;;;;8.84;50.28;101192.84;1366447;90;21309;-88
2022/04/13 07:02:10;;;;;;;10.70;6.50;;;;;;;8.98;48.16;101191.30;1359621;91;21294;-88
2022/04/13 07:04:34;;;;;;;10.90;5.60;;;;;;;9.19;49.02;101191.91;1360009;91;21428;-88
2022/04/13 07:07:01;;;;;;;11.10;6.23;;;;;;;9.33;49.39;101187.71;1359939;91;21279;-87
2022/04/13 07:09:29;;;;;;;9.50;5.70;;;;;;;9.49;47.91;101186.87;1359900;91;22300;-87
2022/04/13 07:11:56;;;;;;;10.03;5.47;;;;;;;9.66;48.19;101188.63;1360232;91;22366;-86
2022/04/13 07:14:23;;;;;;;9.97;6.13;;;;;;;9.82;46.96;101188.24;1359660;91;21442;-86
2022/04/13 07:16:50;;;;;;;10.07;5.70;;;;;;;10.01;47.59;101189.76;1360303;91;21383;-86
2022/04/13 07:19:17;;;;;;;9.87;5.80;;;;;;;10.19;46.55;101192.69;1363552;91;21453;-86
2022/04/13 07:21:45;;;;;;;8.90;5.47;;;;;;;10.36;46.50;101190.84;1365167;90;21517;-87
2022/04/13 07:24:12;;;;;;;10.77;5.60;;;;;;;10.54;45.71;101193.75;1364427;90;21479;-86
2022/04/13 07:26:39;;;;;;;9.47;5.50;;;;;;;10.59;43.01;101197.34;1364728;90;21434;-85
2022/04/13 07:29:06;;;;;;;8.70;5.43;;;;;;;10.51;40.60;101194.50;1346179;92;21508;-86
2022/04/13 07:31:34;;;;;;;12.97;5.77;;;;;;;10.66;43.01;101198.49;1365398;90;21398;-86
2022/04/13 07:34:02;;;;;;;10.07;5.40;;;;;;;10.87;45.16;101198.47;1365317;90;21331;-86
2022/04/13 07:36:30;;;;;;;10.40;5.73;;;;;;;11.06;43.51;101195.94;1365197;90;21242;-86
2022/04/13 07:38:57;;;;;;;11.53;5.50;;;;;;;11.22;42.98;101194.14;1364693;90;21353;-86
2022/04/13 07:41:24;;;;;;;9.03;4.77;;;;;;;11.37;42.86;101196.44;1364942;90;21338;-86
2022/04/13 07:43:51;;;;;;;11.47;6.17;;;;;;;11.48;40.47;101183.08;1364709;90;21369;-86
2022/04/13 07:46:18;;;;;;;8.90;5.50;;;;;;;11.61;40.75;101188.12;1345976;92;21383;-86
2022/04/13 07:48:45;;;;;;;8.57;5.13;;;;;;;11.62;40.62;101187.97;1364751;90;21243;-86
2022/04/13 07:51:12;;;;;;;7.57;4.87;;;;;;;11.80;41.59;101194.80;1364729;90;22255;-86
2022/04/13 07:53:39;;;;;;;9.10;4.83;;;;;;;11.85;38.81;101193.05;1364889;90;22203;-85
2022/04/13 07:56:07;;;;;;;6.87;4.20;;;;;;;11.91;38.67;101185.44;1345572;92;22301;-86
2022/04/13 07:58:34;;;;;;;10.53;4.67;;;;;;;12.01;39.30;101190.73;1399333;88;21404;-86
2022/04/13 08:01:02;;;;;;;5.13;3.80;;;;;;;12.25;39.56;101189.48;1400906;88;21366;-86
2022/04/13 08:03:29;;;;;;;9.93;3.73;;;;;;;12.42;38.86;101192.77;1401276;88;21375;-87
2022/04/13 08:05:56;;;;;;;5.80;3.80;;;;;;;12.61;38.98;101191.42;1401438;88;21271;-86
2022/04/13 08:08:23;;;;;;;5.27;3.30;;;;;;;12.59;36.81;101190.71;1401340;88;21286;-87
2022/04/13 08:10:52;;;;;;;10.60;4.43;;;;;;;12.64;36.66;101196.44;1401144;87;21308;-86
2022/04/13 08:13:19;;;;;;;5.70;3.70;;;;;;;12.72;35.65;101189.59;1400861;87;21323;-86
2022/04/13 08:15:46;;;;;;;5.53;3.57;;;;;;;12.77;36.61;101189.98;1401555;88;21301;-87
2022/04/13 08:18:13;;;;;;;8.00;3.57;;;;;;;12.96;37.42;101191.77;1401728;86;21293;-87
2022/04/13 08:20:41;;;;;;;10.10;3.27;;;;;;;13.19;37.27;101192.25;1381506;89;21286;-86
2022/04/13 08:23:08;;;;;;;7.67;4.23;;;;;;;13.36;35.47;101188.84;1401087;88;21322;-86
2022/04/13 08:25:35;;;;;;;5.97;3.53;;;;;;;13.31;33.87;101193.27;1400688;87;21337;-87
2022/04/13 08:28:02;;;;;;;5.67;3.23;;;;;;;13.35;35.56;101195.16;1401339;86;21330;-86
2022/04/13 08:30:29;;;;;;;4.70;3.43;;;;;;;13.52;35.46;101185.53;1400488;88;22107;-87
2022/04/13 08:32:56;;;;;;;4.97;3.50;;;;;;;13.65;35.11;101178.05;1401025;87;21256;-87
2022/04/13 08:35:23;;;;;;;6.10;3.20;;;;;;;13.74;34.22;101184.29;1400490;87;21359;-87
2022/04/13 08:37:50;;;;;;;5.23;3.63;;;;;;;13.87;34.53;101176.80;1400371;87;21526;-86
2022/04/13 08:40:19;;;;;;;7.00;3.73;;;;;;;13.94;34.11;101178.34;1400823;88;21451;-87
2022/04/13 08:43:04;;;;;;;5.53;3.40;;;;;;;14.09;34.36;101167.50;1400918;88;21484;-87
2022/04/13 08:45:35;;;;;;;4.13;3.30;;;;;;;14.12;33.59;101162.37;1395101;88;21367;-87
2022/04/13 08:48:05;;;;;;;7.07;3.53;;;;;;;14.21;33.41;101161.45;1401532;88;21352;-86
2022/04/13 08:50:32;;;;;;;8.37;4.20;;;;;;;14.30;32.78;101159.22;1402003;88;21308;-86
2022/04/13 08:53:04;;;;;;;5.30;3.37;;;;;;;14.19;31.37;101152.80;1400910;88;21440;-87
2022/04/13 08:55:32;;;;;;;5.70;3.73;;;;;;;14.34;32.97;101151.76;1400700;88;21205;-87
2022/04/13 08:58:14;;;;;;;6.17;3.63;;;;;;;14.58;33.54;101149.79;1396323;87;22314;-87
2022/04/13 09:00:48;;;;;;;7.13;3.43;;;;;;;14.49;29.37;101147.53;1388945;87;22203;-87
2022/04/13 09:03:35;;;;;;;7.13;3.77;;;;;;;14.61;31.60;101145.48;1388961;88;21272;-87
2022/04/13 09:06:04;;;;;;;6.67;4.33;;;;;;;14.68;32.19;101156.37;1387824;89;21353;-87
2022/04/13 09:08:50;;;;;;;6.73;3.80;;;;;;;14.87;32.23;101147.66;1389189;88;21295;-87
2022/04/13 09:11:22;;;;;;;5.00;3.53;;;;;;;14.97;30.58;101145.37;1388732;89;21391;-87
2022/04/13 09:13:47;;;;;;;9.00;3.67;;;;;;;15.01;30.42;101138.72;1389060;88;21553;-87
2022/04/13 09:16:15;;;;;;;4.50;2.97;;;;;;;15.12;31.99;101142.44;1388763;89;21390;-87
2022/04/13 09:18:43;;;;;;;5.40;3.50;;;;;;;15.19;31.83;101143.95;1389159;88;21457;-87
2022/04/13 09:21:20;;;;;;;7.53;3.80;;;;;;;15.44;31.56;101146.23;1389160;89;21437;-87
2022/04/13 09:23:47;;;;;;;6.63;4.17;;;;;;;15.67;31.54;101138.45;1388594;89;21212;-87
2022/04/13 09:26:15;;;;;;;8.23;3.90;;;;;;;15.77;30.67;101137.34;1389289;89;22211;-87
2022/04/13 09:28:43;;;;;;;5.17;3.50;;;;;;;15.35;29.01;101131.53;1388938;89;21339;-86
2022/04/13 09:31:10;;;;;;;5.47;3.33;;;;;;;15.06;27.88;101138.58;1389415;88;21438;-87
2022/04/13 09:33:37;;;;;;;8.90;3.80;;;;;;;14.78;29.12;101128.59;1389311;88;21523;-87
2022/04/13 09:36:05;;;;;;;6.53;4.03;;;;;;;15.02;30.28;101132.41;1388598;89;22248;-85
2022/04/13 09:38:34;;;;;;;6.20;3.87;;;;;;;15.31;31.55;101134.19;1388905;89;21301;-86
2022/04/13 09:41:11;;;;;;;4.50;3.60;;;;;;;15.30;28.03;101125.00;1375842;89;22326;-85
2022/04/13 09:43:39;;;;;;;8.77;3.70;;;;;;;15.09;27.37;101120.92;1389529;88;22439;-84
2022/04/13 09:46:06;;;;;;;6.73;3.80;;;;;;;15.01;28.88;101122.72;1389294;88;21494;-85
2022/04/13 09:48:34;;;;;;;5.43;3.37;;;;;;;15.27;30.17;101123.49;1389475;88;21264;-85
2022/04/13 09:51:02;;;;;;;4.60;3.50;;;;;;;15.61;30.53;101126.59;1375821;89;21456;-85
2022/04/13 09:53:30;;;;;;;4.63;3.13;;;;;;;16.02;30.30;101124.01;1389492;88;21280;-85
2022/04/13 09:56:02;;;;;;;6.93;3.70;;;;;;;16.28;29.28;101123.02;1389338;89;21302;-86
2022/04/13 09:58:30;;;;;;;5.87;3.57;;;;;;;16.51;29.75;101126.66;1389498;89;21404;-85
2022/04/13 10:01:02;;;;;;;6.07;3.30;;;;;;;16.73;29.75;101120.28;1388991;88;21287;-85
2022/04/13 10:03:28;;;;;;;6.47;3.13;;;;;;;16.85;28.91;101118.94;1389355;88;21337;-85
2022/04/13 10:05:58;;;;;;;10.07;4.13;;;;;;;17.04;28.54;101110.52;1388827;88;21265;-85
2022/04/13 10:08:28;;;;;;;7.22;3.50;;;;;;;17.08;28.10;101105.14;1389315;89;21435;-86
2022/04/13 10:10:59;;;;;;;5.65;2.83;;;;;;;17.17;28.35;101109.12;1389149;88;21345;-84
2022/04/13 10:13:36;;;;;;;11.33;4.03;;;;;;;17.18;24.52;101097.44;1388706;89;21361;-86
2022/04/13 10:16:11;;;;;;;35.07;4.70;;;;;;;17.01;26.56;101105.52;1389105;88;21530;-85
2022/04/13 10:18:58;;;;;;;105.80;12.80;;;;;;;17.21;26.68;101095.75;1388432;89;22189;-86
2022/04/13 10:21:41;;;;;;;5.30;2.72;;;;;;;17.33;26.41;101099.17;1390311;89;21286;-84
2022/04/13 10:24:12;;;;;;;9.03;3.20;;;;;;;17.44;26.13;101097.95;1375799;89;21287;-85
2022/04/13 10:26:42;;;;;;;5.63;2.57;;;;;;;17.46;26.53;101101.27;1387975;89;22763;-85
2022/04/13 10:29:17;;;;;;;6.50;3.10;;;;;;;17.46;23.10;101102.61;1388860;88;21345;-85
2022/04/13 10:32:09;;;;;;;4.87;3.00;;;;;;;17.01;22.82;101112.20;1388881;89;21450;-85
2022/04/13 10:34:46;;;;;;;5.23;3.37;;;;;;;17.07;24.66;101102.14;1389079;88;21331;-86
2022/04/13 10:37:17;;;;;;;5.23;3.07;;;;;;;17.25;24.89;101096.54;1388899;88;21540;-85
2022/04/13 10:39:46;;;;;;;4.47;2.63;;;;;;;17.33;24.92;101090.33;1389035;88;22362;-85
2022/04/13 10:42:16;;;;;;;4.03;2.33;;;;;;;17.46;24.59;101096.42;1389002;88;21309;-85
2022/04/13 10:45:01;;;;;;;4.53;2.40;;;;;;;17.64;25.23;101094.83;1389240;89;22151;-84
2022/04/13 10:47:42;;;;;;;5.33;3.40;;;;;;;17.83;23.13;101085.00;1389186;88;21353;-84
2022/04/13 10:50:12;;;;;;;3.90;2.57;;;;;;;17.49;22.34;101078.20;1389022;89;21501;-85
2022/04/13 10:52:44;;;;;;;5.43;2.70;;;;;;;17.51;24.78;101066.79;1389172;89;21286;-85
2022/04/13 10:55:13;;;;;;;38.10;4.33;;;;;;;17.70;24.13;101066.84;1370282;89;21230;-82
2022/04/13 10:57:54;;;;;;;8.27;2.60;;;;;;;17.90;24.16;101064.54;1371615;89;21304;-84
2022/04/13 11:00:23;;;;;;;3.20;2.20;;;;;;;17.75;24.23;101071.63;1377659;89;21255;-84
2022/04/13 11:03:03;;;;;;;8.73;2.70;;;;;;;17.94;23.88;101073.86;1366342;90;21278;-84
2022/04/13 11:05:32;;;;;;;50.55;4.80;;;;;;;18.17;24.85;101068.47;1377434;89;21382;-84
2022/04/13 11:08:30;;;;;;;8.07;2.67;;;;;;;18.29;23.90;101067.52;1380486;89;22672;-86
2022/04/13 11:10:58;;;;;;;4.67;2.63;;;;;;;18.18;23.09;101059.92;1383988;89;21360;-85
2022/04/13 11:13:32;;;;;;;6.33;3.20;;;;;;;18.28;23.29;101063.19;1384347;88;21552;-84
2022/04/13 11:16:22;;;;;;;6.60;2.93;;;;;;;17.64;22.94;101055.51;1377906;89;21349;-87
2022/04/13 11:19:13;;;;;;;7.17;3.55;;;;;;;17.57;23.18;101055.37;1376794;88;22735;-83
2022/04/13 11:22:02;;;;;;;4.23;3.10;;;;;;;17.32;22.98;101052.04;1376213;88;22301;-85
2022/04/13 11:24:40;;;;;;;3.83;2.87;;;;;;;17.32;24.50;101050.70;1376550;89;22737;-84
2022/04/13 11:27:10;;;;;;;5.93;3.63;;;;;;;17.60;24.18;101038.95;1378852;89;21485;-84
2022/04/13 11:29:57;;;;;;;6.17;3.12;;;;;;;17.90;22.79;101043.12;1383529;89;21442;-84